sim
Sign-in with your pilot id or email,
or register
Callsign
Passwort

Schedule Details

Flight Number: OEO3033
Departure: Berlin Tegel Airport (EDDT) at 06:35
Arrival: Munich Airport (EDDM) at 07:50

Weather Information
Getting current METAR information for EDDT 281150Z 14009KT 110V180 9999 SCT043 18/08 Q1011 NOSIG
Getting current METAR information for EDDM 281150Z 27004KT 240V300 9999 FEW010 BKN040 10/07 Q1012 NOSIG

Schedule Frequency

Route Map